sensor_id;sensor_type;location;lat;lon;timestamp;pressure;altitude;pressure_sealevel;temperature;humidity
49585;BME280;35491;49.142;9.210;2023-02-16T02:10:16;101014.75;;;0.29;81.51
49585;BME280;35491;49.142;9.210;2023-02-16T02:16:04;101003.09;;;0.36;81.32
49585;BME280;35491;49.142;9.210;2023-02-16T02:20:05;100987.31;;;0.60;80.40
49585;BME280;35491;49.142;9.210;2023-02-16T02:24:28;100997.56;;;0.68;79.63
49585;BME280;35491;49.142;9.210;2023-02-16T03:34:40;100999.41;;;0.42;80.76
49585;BME280;35491;49.142;9.210;2023-02-16T03:36:02;100988.00;;;0.41;80.36
49585;BME280;35491;49.142;9.210;2023-02-16T03:37:24;100994.13;;;0.42;80.70
49585;BME280;35491;49.142;9.210;2023-02-16T03:38:37;100994.91;;;0.44;80.21
49585;BME280;35491;49.142;9.210;2023-02-16T03:42:52;101001.97;;;0.43;79.92
49585;BME280;35491;49.142;9.210;2023-02-16T03:46:04;101001.22;;;0.40;80.65
49585;BME280;35491;49.142;9.210;2023-02-16T05:31:47;101001.88;;;-0.04;80.38
49585;BME280;35491;49.142;9.210;2023-02-16T05:32:51;101012.41;;;-0.04;80.10
49585;BME280;35491;49.142;9.210;2023-02-16T05:33:53;101010.59;;;-0.02;80.32
49585;BME280;35491;49.142;9.210;2023-02-16T05:34:58;101011.53;;;-0.05;79.94
49585;BME280;35491;49.142;9.210;2023-02-16T05:36:03;101016.69;;;-0.02;80.24
49585;BME280;35491;49.142;9.210;2023-02-16T05:37:10;101010.47;;;0.01;80.03
49585;BME280;35491;49.142;9.210;2023-02-16T05:38:14;101015.72;;;0.01;79.96
49585;BME280;35491;49.142;9.210;2023-02-16T05:39:21;101017.41;;;0.04;80.19
49585;BME280;35491;49.142;9.210;2023-02-16T05:40:26;101014.81;;;0.02;79.66
49585;BME280;35491;49.142;9.210;2023-02-16T05:41:34;101019.31;;;-0.02;79.79
49585;BME280;35491;49.142;9.210;2023-02-16T05:42:41;101014.22;;;-0.06;79.86
49585;BME280;35491;49.142;9.210;2023-02-16T05:43:54;101021.19;;;-0.05;80.32
49585;BME280;35491;49.142;9.210;2023-02-16T05:44:59;101021.19;;;-0.05;80.29
49585;BME280;35491;49.142;9.210;2023-02-16T05:46:10;101024.72;;;-0.06;80.19
49585;BME280;35491;49.142;9.210;2023-02-16T05:47:16;101031.72;;;-0.05;80.11
49585;BME280;35491;49.142;9.210;2023-02-16T05:48:23;101027.38;;;-0.06;80.03
49585;BME280;35491;49.142;9.210;2023-02-16T05:49:28;101023.81;;;-0.05;80.28
49585;BME280;35491;49.142;9.210;2023-02-16T05:50:35;101017.72;;;-0.06;80.05
49585;BME280;35491;49.142;9.210;2023-02-16T05:51:38;101024.66;;;-0.03;80.10
49585;BME280;35491;49.142;9.210;2023-02-16T05:52:46;101020.34;;;-0.06;79.89
49585;BME280;35491;49.142;9.210;2023-02-16T05:53:52;101030.81;;;-0.04;80.27
49585;BME280;35491;49.142;9.210;2023-02-16T05:55:03;101033.38;;;-0.03;80.11
49585;BME280;35491;49.142;9.210;2023-02-16T05:56:12;101036.81;;;-0.01;80.31
49585;BME280;35491;49.142;9.210;2023-02-16T05:57:19;101031.63;;;-0.02;79.76
49585;BME280;35491;49.142;9.210;2023-02-16T05:58:27;101029.91;;;-0.03;79.61
49585;BME280;35491;49.142;9.210;2023-02-16T05:59:30;101030.00;;;-0.06;79.79
49585;BME280;35491;49.142;9.210;2023-02-16T06:00:35;101031.06;;;-0.12;79.53
49585;BME280;35491;49.142;9.210;2023-02-16T06:01:38;101031.94;;;-0.11;79.93
49585;BME280;35491;49.142;9.210;2023-02-16T06:02:44;101027.53;;;-0.11;80.28
49585;BME280;35491;49.142;9.210;2023-02-16T06:03:45;101030.25;;;-0.14;80.10
49585;BME280;35491;49.142;9.210;2023-02-16T06:04:49;101034.56;;;-0.11;80.18
49585;BME280;35491;49.142;9.210;2023-02-16T06:05:53;101030.25;;;-0.14;80.09
49585;BME280;35491;49.142;9.210;2023-02-16T06:06:55;101039.09;;;-0.17;80.13
49585;BME280;35491;49.142;9.210;2023-02-16T06:07:59;101040.81;;;-0.16;80.17
49585;BME280;35491;49.142;9.210;2023-02-16T06:09:00;101045.03;;;-0.10;80.14
49585;BME280;35491;49.142;9.210;2023-02-16T06:10:04;101037.88;;;-0.06;80.12
49585;BME280;35491;49.142;9.210;2023-02-16T06:11:06;101041.25;;;-0.03;80.00
49585;BME280;35491;49.142;9.210;2023-02-16T06:12:30;101047.41;;;-0.02;79.83
49585;BME280;35491;49.142;9.210;2023-02-16T06:13:37;101046.44;;;0.01;79.66
49585;BME280;35491;49.142;9.210;2023-02-16T06:15:02;101044.59;;;0.03;79.59
49585;BME280;35491;49.142;9.210;2023-02-16T06:16:10;101046.59;;;-0.04;79.26
49585;BME280;35491;49.142;9.210;2023-02-16T06:17:11;101052.69;;;-0.04;79.58
49585;BME280;35491;49.142;9.210;2023-02-16T06:18:18;101048.31;;;-0.03;79.39
49585;BME280;35491;49.142;9.210;2023-02-16T06:19:19;101049.06;;;0.01;79.46
49585;BME280;35491;49.142;9.210;2023-02-16T06:20:23;101051.69;;;0.01;79.46
49585;BME280;35491;49.142;9.210;2023-02-16T06:21:24;101048.06;;;0.05;79.56
49585;BME280;35491;49.142;9.210;2023-02-16T06:22:28;101047.06;;;0.07;79.39
49585;BME280;35491;49.142;9.210;2023-02-16T06:23:29;101044.44;;;0.07;79.09
49585;BME280;35491;49.142;9.210;2023-02-16T06:24:32;101045.25;;;0.09;79.36
49585;BME280;35491;49.142;9.210;2023-02-16T06:25:36;101045.19;;;0.11;79.09
49585;BME280;35491;49.142;9.210;2023-02-16T06:27:44;101041.69;;;0.10;78.85
49585;BME280;35491;49.142;9.210;2023-02-16T06:28:45;101042.63;;;0.09;78.80
49585;BME280;35491;49.142;9.210;2023-02-16T06:29:49;101037.53;;;0.05;78.48
49585;BME280;35491;49.142;9.210;2023-02-16T06:30:51;101047.19;;;0.04;78.93
49585;BME280;35491;49.142;9.210;2023-02-16T06:31:55;101044.47;;;0.06;79.26
49585;BME280;35491;49.142;9.210;2023-02-16T06:32:56;101038.38;;;0.05;79.07
49585;BME280;35491;49.142;9.210;2023-02-16T06:34:03;101042.78;;;0.05;79.03
49585;BME280;35491;49.142;9.210;2023-02-16T06:35:04;101044.47;;;0.06;79.02
49585;BME280;35491;49.142;9.210;2023-02-16T06:36:08;101052.44;;;0.04;78.81
49585;BME280;35491;49.142;9.210;2023-02-16T06:37:09;101043.72;;;0.02;79.03
49585;BME280;35491;49.142;9.210;2023-02-16T06:38:13;101048.09;;;0.03;79.05
49585;BME280;35491;49.142;9.210;2023-02-16T06:39:15;101047.19;;;0.04;79.15
49585;BME280;35491;49.142;9.210;2023-02-16T06:40:19;101045.44;;;0.03;78.77
49585;BME280;35491;49.142;9.210;2023-02-16T06:41:20;101054.38;;;-0.01;78.68
49585;BME280;35491;49.142;9.210;2023-02-16T06:42:35;101043.03;;;-0.03;78.92
49585;BME280;35491;49.142;9.210;2023-02-16T06:43:36;101040.56;;;-0.08;79.10
49585;BME280;35491;49.142;9.210;2023-02-16T06:44:40;101045.78;;;-0.06;79.31
49585;BME280;35491;49.142;9.210;2023-02-16T06:45:44;101047.59;;;-0.08;79.37
49585;BME280;35491;49.142;9.210;2023-02-16T06:46:47;101045.84;;;-0.09;79.05
49585;BME280;35491;49.142;9.210;2023-02-16T06:47:49;101046.97;;;-0.17;79.28
49585;BME280;35491;49.142;9.210;2023-02-16T06:48:52;101050.53;;;-0.18;79.98
49585;BME280;35491;49.142;9.210;2023-02-16T06:49:57;101043.53;;;-0.19;79.75
49585;BME280;35491;49.142;9.210;2023-02-16T06:51:01;101043.50;;;-0.17;79.46
49585;BME280;35491;49.142;9.210;2023-02-16T06:52:03;101048.72;;;-0.16;79.62
49585;BME280;35491;49.142;9.210;2023-02-16T06:53:06;101053.06;;;-0.14;79.60
49585;BME280;35491;49.142;9.210;2023-02-16T06:54:08;101058.25;;;-0.13;79.42
49585;BME280;35491;49.142;9.210;2023-02-16T06:55:12;101057.31;;;-0.10;79.50
49585;BME280;35491;49.142;9.210;2023-02-16T06:56:13;101052.06;;;-0.10;79.13
49585;BME280;35491;49.142;9.210;2023-02-16T06:57:17;101053.06;;;-0.14;79.21
49585;BME280;35491;49.142;9.210;2023-02-16T06:58:18;101045.97;;;-0.12;79.12
49585;BME280;35491;49.142;9.210;2023-02-16T06:59:22;101057.41;;;-0.13;78.93
49585;BME280;35491;49.142;9.210;2023-02-16T07:00:26;101061.03;;;-0.18;78.79
49585;BME280;35491;49.142;9.210;2023-02-16T07:01:27;101063.66;;;-0.18;78.82
49585;BME280;35491;49.142;9.210;2023-02-16T07:02:31;101070.63;;;-0.17;78.87
49585;BME280;35491;49.142;9.210;2023-02-16T07:03:32;101067.19;;;-0.19;78.74
49585;BME280;35491;49.142;9.210;2023-02-16T07:04:36;101061.91;;;-0.17;78.96
49585;BME280;35491;49.142;9.210;2023-02-16T07:05:43;101070.63;;;-0.17;79.00
49585;BME280;35491;49.142;9.210;2023-02-16T07:06:44;101066.41;;;-0.21;78.62
49585;BME280;35491;49.142;9.210;2023-02-16T07:07:47;101067.19;;;-0.19;79.29
49585;BME280;35491;49.142;9.210;2023-02-16T07:08:49;101077.69;;;-0.17;79.13
49585;BME280;35491;49.142;9.210;2023-02-16T07:09:53;101064.47;;;-0.16;79.04
49585;BME280;35491;49.142;9.210;2023-02-16T07:10:54;101072.47;;;-0.19;79.08
49585;BME280;35491;49.142;9.210;2023-02-16T07:11:58;101079.56;;;-0.21;79.20
49585;BME280;35491;49.142;9.210;2023-02-16T07:12:59;101072.47;;;-0.19;79.07
49585;BME280;35491;49.142;9.210;2023-02-16T07:14:02;101076.03;;;-0.20;79.04
49585;BME280;35491;49.142;9.210;2023-02-16T07:15:07;101071.47;;;-0.14;79.38
49585;BME280;35491;49.142;9.210;2023-02-16T07:16:08;101063.63;;;-0.16;79.17
49585;BME280;35491;49.142;9.210;2023-02-16T07:17:12;101064.41;;;-0.14;79.23
49585;BME280;35491;49.142;9.210;2023-02-16T07:18:13;101066.19;;;-0.14;79.06
49585;BME280;35491;49.142;9.210;2023-02-16T07:19:17;101058.22;;;-0.11;79.11
49585;BME280;35491;49.142;9.210;2023-02-16T07:20:18;101058.22;;;-0.11;78.93
49585;BME280;35491;49.142;9.210;2023-02-16T07:21:25;101069.81;;;-0.19;78.49
49585;BME280;35491;49.142;9.210;2023-02-16T07:22:26;101070.56;;;-0.40;79.29
49585;BME280;35491;49.142;9.210;2023-02-16T07:23:30;101063.81;;;-0.49;79.83
49585;BME280;35491;49.142;9.210;2023-02-16T07:24:31;101074.53;;;-0.55;80.03
49585;BME280;35491;49.142;9.210;2023-02-16T07:25:35;101070.94;;;-0.53;80.21
49585;BME280;35491;49.142;9.210;2023-02-16T07:26:36;101069.78;;;-0.44;80.26
49585;BME280;35491;49.142;9.210;2023-02-16T07:27:42;101067.47;;;-0.55;79.91
49585;BME280;35491;49.142;9.210;2023-02-16T07:28:43;101075.78;;;-0.67;80.57
49585;BME280;35491;49.142;9.210;2023-02-16T07:29:47;101073.38;;;-0.75;81.10
49585;BME280;35491;49.142;9.210;2023-02-16T07:30:48;101073.44;;;-0.76;81.28
49585;BME280;35491;49.142;9.210;2023-02-16T07:31:52;101081.31;;;-0.76;81.25
49585;BME280;35491;49.142;9.210;2023-02-16T07:32:54;101091.91;;;-0.80;81.15
49585;BME280;35491;49.142;9.210;2023-02-16T07:33:57;101079.59;;;-0.77;81.04
49585;BME280;35491;49.142;9.210;2023-02-16T07:34:59;101081.47;;;-0.83;80.79
49585;BME280;35491;49.142;9.210;2023-02-16T07:36:03;101080.75;;;-0.88;81.19
49585;BME280;35491;49.142;9.210;2023-02-16T07:37:07;101084.16;;;-0.84;81.38
